Time;durP1;ratioP1;P1;durP2;ratioP2;P2;SDS_P1;SDS_P2;PMS_P1;PMS_P2;Temp;Humidity;BMP_temperature;BMP_pressure;BME280_temperature;BME280_humidity;BME280_pressure;Samples;Min_cycle;Max_cycle;Signal;HPM_P1;HPM_P2
2023/03/27 00:00:56;;;;;;;1.20;1.00;;;18.60;43.50;;;;;;5012306;28;20660;-60
2023/03/27 00:03:24;;;;;;;1.57;1.20;;;18.60;43.50;;;;;;5014559;28;20492;-66
2023/03/27 00:06:10;;;;;;;1.33;1.23;;;18.60;43.50;;;;;;5010373;28;20463;-69
2023/03/27 00:08:37;;;;;;;2.03;1.23;;;18.60;43.50;;;;;;5013496;28;20503;-61
2023/03/27 00:11:03;;;;;;;1.20;1.10;;;18.60;43.50;;;;;;5012905;28;20987;-68
2023/03/27 00:13:30;;;;;;;1.60;1.20;;;18.60;43.50;;;;;;5011251;28;20476;-60
2023/03/27 00:15:57;;;;;;;1.50;1.00;;;18.60;43.50;;;;;;5010937;28;20449;-62
2023/03/27 00:18:23;;;;;;;1.20;1.10;;;18.60;43.50;;;;;;5014494;28;20424;-60
2023/03/27 00:20:50;;;;;;;1.67;1.30;;;18.60;43.50;;;;;;5013296;28;20442;-61
2023/03/27 00:23:18;;;;;;;1.80;1.30;;;18.60;43.50;;;;;;5010976;28;20476;-64
2023/03/27 00:25:47;;;;;;;1.60;1.50;;;18.60;43.50;;;;;;5010194;28;20435;-62
2023/03/27 00:28:14;;;;;;;1.20;1.10;;;18.60;43.50;;;;;;5013804;28;20452;-63
2023/03/27 00:30:40;;;;;;;1.00;0.90;;;18.60;43.50;;;;;;5018160;28;20466;-62
2023/03/27 00:33:07;;;;;;;1.23;1.13;;;18.60;43.50;;;;;;5017320;28;20496;-64
2023/03/27 00:35:32;;;;;;;1.40;1.10;;;18.60;43.50;;;;;;5020992;28;20235;-59
2023/03/27 00:37:58;;;;;;;1.43;1.30;;;18.60;43.50;;;;;;5016621;28;20463;-61
2023/03/27 00:40:24;;;;;;;2.30;1.20;;;18.60;43.50;;;;;;5016421;28;20590;-59
2023/03/27 00:42:50;;;;;;;1.20;1.10;;;18.50;43.40;;;;;;5012835;28;20589;-61
2023/03/27 00:45:19;;;;;;;1.50;1.40;;;18.60;43.50;;;;;;5018485;28;20219;-63
2023/03/27 00:47:46;;;;;;;1.90;1.03;;;18.60;43.50;;;;;;5018114;28;20781;-60
2023/03/27 00:50:17;;;;;;;1.40;1.03;;;18.60;43.50;;;;;;5014788;28;20461;-59
2023/03/27 00:52:46;;;;;;;1.50;1.10;;;18.60;43.50;;;;;;5014602;28;20501;-63
2023/03/27 00:55:15;;;;;;;2.70;1.40;;;18.60;43.50;;;;;;5016198;28;20563;-62
2023/03/27 00:57:46;;;;;;;4.00;1.53;;;18.60;43.50;;;;;;5016780;28;20989;-58
2023/03/27 01:00:13;;;;;;;1.20;1.10;;;18.60;43.50;;;;;;5017727;28;20493;-60
2023/03/27 01:02:43;;;;;;;1.40;1.30;;;18.60;43.50;;;;;;5022721;28;20476;-60
2023/03/27 01:05:10;;;;;;;1.20;1.10;;;18.60;43.50;;;;;;5020908;28;20538;-59
2023/03/27 01:07:36;;;;;;;1.53;1.20;;;18.50;43.40;;;;;;5019927;28;20515;-59
2023/03/27 01:10:05;;;;;;;1.50;1.10;;;18.50;43.40;;;;;;5019286;28;20510;-60
2023/03/27 01:12:54;;;;;;;1.10;1.00;;;18.50;43.40;;;;;;5019605;28;23835;-62
2023/03/27 01:15:35;;;;;;;1.03;0.93;;;18.60;43.50;;;;;;5018843;28;20799;-60
2023/03/27 01:18:31;;;;;;;1.47;1.37;;;18.60;43.50;;;;;;5018113;28;20781;-60
2023/03/27 01:21:18;;;;;;;1.20;1.10;;;18.60;43.50;;;;;;5020779;28;20448;-61
2023/03/27 01:24:28;;;;;;;1.60;1.40;;;18.50;43.40;;;;;;5014831;28;20428;-61
2023/03/27 01:27:00;;;;;;;1.43;1.20;;;18.50;43.40;;;;;;4958794;28;20452;-59
2023/03/27 01:29:34;;;;;;;1.40;1.30;;;18.50;43.40;;;;;;5007190;28;20476;-59
2023/03/27 01:32:18;;;;;;;1.30;1.20;;;18.50;43.40;;;;;;5014821;28;22028;-64
2023/03/27 01:35:11;;;;;;;1.20;1.10;;;18.50;43.40;;;;;;5014074;28;20881;-59
2023/03/27 01:37:50;;;;;;;1.40;1.30;;;18.50;43.40;;;;;;5021460;28;20419;-60
2023/03/27 01:40:20;;;;;;;1.20;1.00;;;18.50;43.40;;;;;;5016249;28;20448;-59
2023/03/27 01:42:58;;;;;;;1.37;1.10;;;18.50;43.40;;;;;;5013029;28;20434;-61
2023/03/27 01:45:34;;;;;;;1.40;1.30;;;18.50;43.40;;;;;;5017220;28;20450;-63
2023/03/27 01:48:08;;;;;;;1.40;1.20;;;18.50;43.40;;;;;;5013337;28;20437;-64
2023/03/27 01:50:57;;;;;;;1.33;1.23;;;18.50;43.40;;;;;;5016824;28;20449;-59
2023/03/27 01:53:35;;;;;;;1.60;1.20;;;18.50;43.40;;;;;;5014737;28;22119;-58
2023/03/27 01:56:09;;;;;;;1.27;1.10;;;18.50;43.30;;;;;;5012820;28;20529;-61
2023/03/27 01:58:40;;;;;;;1.90;1.20;;;18.50;43.40;;;;;;5017282;28;20438;-60
2023/03/27 02:01:09;;;;;;;2.63;1.50;;;18.50;43.40;;;;;;5018236;28;20458;-58
2023/03/27 02:03:40;;;;;;;1.70;1.40;;;18.50;43.40;;;;;;5016122;28;20785;-61
2023/03/27 02:06:17;;;;;;;1.67;1.30;;;18.50;43.40;;;;;;5014932;28;20429;-59
2023/03/27 02:08:56;;;;;;;1.10;1.00;;;18.50;43.40;;;;;;5017198;28;20439;-59
2023/03/27 02:11:25;;;;;;;1.20;1.10;;;18.50;43.40;;;;;;5014080;28;20480;-61
2023/03/27 02:13:58;;;;;;;1.10;1.00;;;18.50;43.40;;;;;;5016951;28;20439;-60
2023/03/27 02:16:32;;;;;;;1.23;1.13;;;18.50;43.40;;;;;;5014288;28;20479;-59
2023/03/27 02:19:07;;;;;;;1.27;1.10;;;18.50;43.40;;;;;;5015492;28;20453;-61
2023/03/27 02:21:32;;;;;;;1.30;1.20;;;18.50;43.40;;;;;;5016176;28;20459;-62
2023/03/27 02:24:00;;;;;;;3.93;1.47;;;18.50;43.40;;;;;;5013924;28;20456;-59
2023/03/27 02:26:29;;;;;;;1.43;1.33;;;18.50;43.40;;;;;;5010081;28;20223;-64
2023/03/27 02:29:01;;;;;;;2.10;1.10;;;18.50;43.40;;;;;;5015388;28;20481;-59
2023/03/27 02:31:49;;;;;;;2.00;1.33;;;18.50;43.40;;;;;;5015302;28;20469;-60
2023/03/27 02:34:42;;;;;;;1.60;1.50;;;18.50;43.40;;;;;;5016130;28;20447;-63
2023/03/27 02:37:20;;;;;;;1.80;1.30;;;18.50;43.30;;;;;;5012785;28;20429;-64
2023/03/27 02:39:57;;;;;;;1.83;1.27;;;18.50;43.40;;;;;;5017522;28;20434;-63
2023/03/27 02:42:45;;;;;;;1.40;1.30;;;18.50;43.40;;;;;;5015590;28;20452;-62
2023/03/27 02:45:40;;;;;;;2.47;1.30;;;18.50;43.40;;;;;;5021139;28;20966;-63
2023/03/27 02:48:16;;;;;;;1.33;1.23;;;18.50;43.40;;;;;;5017210;28;20470;-60
2023/03/27 02:50:49;;;;;;;1.30;1.20;;;18.50;43.40;;;;;;5018260;28;20446;-66
2023/03/27 02:53:21;;;;;;;1.17;1.07;;;18.50;43.40;;;;;;5021306;28;20474;-62
2023/03/27 02:56:00;;;;;;;1.50;1.30;;;18.50;43.40;;;;;;5021358;28;20525;-61
2023/03/27 02:58:35;;;;;;;1.27;1.17;;;18.50;43.40;;;;;;5017722;28;20468;-59
2023/03/27 03:01:02;;;;;;;1.40;1.20;;;18.50;43.40;;;;;;5019460;28;20426;-59
2023/03/27 03:03:43;;;;;;;1.50;1.40;;;18.50;44.10;;;;;;5019095;28;20453;-61
2023/03/27 03:06:09;;;;;;;2.10;1.30;;;18.50;43.40;;;;;;5020632;28;20860;-62
2023/03/27 03:08:39;;;;;;;1.37;1.27;;;18.50;43.40;;;;;;5023732;28;20507;-61
2023/03/27 03:11:08;;;;;;;1.33;1.23;;;18.50;43.40;;;;;;5020999;28;20473;-65
2023/03/27 03:13:34;;;;;;;1.37;1.00;;;18.50;43.30;;;;;;5021685;28;20839;-61
2023/03/27 03:16:00;;;;;;;1.87;1.20;;;18.50;43.40;;;;;;5025106;28;20430;-61
2023/03/27 03:18:26;;;;;;;1.27;1.13;;;18.50;43.40;;;;;;5018602;28;20234;-60
2023/03/27 03:20:52;;;;;;;1.30;1.13;;;18.50;43.40;;;;;;5018731;28;20229;-60
2023/03/27 03:23:20;;;;;;;1.37;1.27;;;18.50;43.40;;;;;;5021303;28;20430;-60
2023/03/27 03:25:46;;;;;;;1.40;1.20;;;18.50;43.40;;;;;;5019925;28;20989;-61
2023/03/27 03:28:12;;;;;;;1.20;1.10;;;18.50;43.40;;;;;;5017363;28;20434;-63
2023/03/27 03:30:41;;;;;;;1.17;1.07;;;18.50;43.40;;;;;;5016669;28;20813;-61
2023/03/27 03:33:08;;;;;;;2.80;1.30;;;18.50;43.40;;;;;;5018256;28;20415;-60
2023/03/27 03:35:34;;;;;;;1.60;1.20;;;18.50;43.40;;;;;;5014171;28;20447;-63
2023/03/27 03:38:00;;;;;;;2.27;1.23;;;18.50;43.40;;;;;;5017841;28;20511;-59
2023/03/27 03:40:25;;;;;;;1.50;1.37;;;18.40;43.30;;;;;;5019759;28;21713;-63
2023/03/27 03:42:52;;;;;;;1.67;1.40;;;18.50;43.40;;;;;;5017659;28;20703;-59
2023/03/27 03:45:18;;;;;;;1.23;1.13;;;18.50;43.40;;;;;;5018271;28;20231;-61
2023/03/27 03:47:45;;;;;;;1.50;1.40;;;18.50;43.40;;;;;;5015743;28;20464;-59
2023/03/27 03:50:11;;;;;;;1.30;1.20;;;18.50;43.50;;;;;;5016582;28;20980;-60
2023/03/27 03:52:37;;;;;;;1.37;1.27;;;18.50;43.40;;;;;;5019386;28;20449;-62
2023/03/27 03:55:04;;;;;;;1.17;1.07;;;18.50;43.40;;;;;;5016770;28;20962;-59
2023/03/27 03:57:30;;;;;;;2.17;1.20;;;18.50;43.40;;;;;;5017472;28;21487;-62
2023/03/27 03:59:58;;;;;;;1.37;1.27;;;18.50;43.40;;;;;;5018181;28;20435;-60
2023/03/27 04:02:27;;;;;;;1.27;1.17;;;18.50;43.40;;;;;;5013899;28;20314;-65
2023/03/27 04:04:55;;;;;;;1.70;1.27;;;18.50;43.40;;;;;;5017295;28;20482;-64
2023/03/27 04:07:22;;;;;;;1.20;1.10;;;18.50;43.40;;;;;;5014785;28;20481;-60
2023/03/27 04:09:49;;;;;;;1.40;1.30;;;18.50;43.40;;;;;;5015306;28;20733;-62
2023/03/27 04:12:15;;;;;;;1.70;1.60;;;18.50;43.40;;;;;;5016464;28;21110;-64
2023/03/27 04:14:41;;;;;;;1.40;1.30;;;18.50;43.40;;;;;;5014367;28;20788;-63
2023/03/27 04:17:06;;;;;;;1.33;1.23;;;18.50;43.40;;;;;;5015258;28;20452;-60
2023/03/27 04:19:32;;;;;;;2.00;1.30;;;18.50;43.40;;;;;;5020094;28;20214;-60
2023/03/27 04:22:01;;;;;;;1.30;1.20;;;18.50;43.40;;;;;;5020539;28;20229;-63
2023/03/27 04:24:29;;;;;;;1.30;1.20;;;18.50;43.40;;;;;;5019552;28;20227;-69
2023/03/27 04:26:57;;;;;;;1.40;1.10;;;18.50;43.40;;;;;;5014698;28;21492;-63
2023/03/27 04:29:23;;;;;;;1.17;1.07;;;18.50;43.40;;;;;;5004879;28;20969;-63
2023/03/27 04:31:49;;;;;;;1.40;1.20;;;18.50;43.40;;;;;;5011447;28;20446;-59
2023/03/27 04:34:19;;;;;;;1.23;1.13;;;18.50;43.40;;;;;;5012325;28;21723;-59
2023/03/27 04:36:45;;;;;;;1.40;1.30;;;18.50;43.40;;;;;;5009335;28;20543;-65
2023/03/27 04:39:10;;;;;;;3.17;1.20;;;18.50;43.40;;;;;;5010361;28;20480;-60
2023/03/27 04:41:37;;;;;;;1.50;1.40;;;18.50;43.40;;;;;;5010216;28;20837;-65
2023/03/27 04:44:04;;;;;;;1.40;1.30;;;18.50;43.40;;;;;;5009685;28;20231;-59
2023/03/27 04:46:29;;;;;;;1.50;1.30;;;18.50;43.40;;;;;;5013876;28;20452;-64
2023/03/27 04:48:55;;;;;;;1.63;1.07;;;18.50;43.40;;;;;;5013196;28;21042;-67
2023/03/27 04:51:21;;;;;;;1.53;1.20;;;18.50;43.30;;;;;;5016329;28;20226;-63
2023/03/27 04:53:46;;;;;;;1.10;1.00;;;18.50;43.40;;;;;;5011014;28;20678;-59
2023/03/27 04:56:12;;;;;;;1.40;1.30;;;18.50;43.40;;;;;;5014645;28;20227;-62
2023/03/27 04:58:40;;;;;;;1.20;1.10;;;18.50;43.40;;;;;;5016651;28;20776;-59
2023/03/27 05:01:06;;;;;;;1.20;1.00;;;18.50;43.30;;;;;;5015496;28;20231;-63
2023/03/27 05:03:33;;;;;;;1.30;1.20;;;18.50;43.40;;;;;;5017857;28;20426;-67
2023/03/27 05:05:58;;;;;;;1.77;1.17;;;18.50;43.40;;;;;;5012830;28;20234;-59
2023/03/27 05:08:25;;;;;;;1.33;0.90;;;18.50;43.40;;;;;;5013539;28;20465;-62
2023/03/27 05:10:50;;;;;;;1.43;1.20;;;18.50;43.40;;;;;;5018312;28;20707;-60
2023/03/27 05:13:16;;;;;;;1.93;1.00;;;18.50;43.40;;;;;;5019784;28;20423;-59
2023/03/27 05:15:42;;;;;;;1.30;1.10;;;18.50;43.40;;;;;;5014556;28;20856;-61
2023/03/27 05:18:07;;;;;;;1.30;1.20;;;18.50;43.40;;;;;;5012706;28;20230;-62
2023/03/27 05:20:34;;;;;;;1.60;1.10;;;18.50;43.40;;;;;;5015929;28;20218;-60
2023/03/27 05:22:59;;;;;;;1.20;1.03;;;18.50;43.40;;;;;;5011899;28;20231;-60
2023/03/27 05:25:26;;;;;;;1.73;1.17;;;18.50;43.30;;;;;;5019489;28;20948;-62
2023/03/27 05:27:52;;;;;;;1.10;1.00;;;18.50;43.30;;;;;;5009292;28;20618;-59
2023/03/27 05:30:22;;;;;;;1.13;1.00;;;18.50;43.40;;;;;;5017371;28;20497;-59
2023/03/27 05:32:50;;;;;;;1.10;1.00;;;18.50;43.40;;;;;;5020727;28;20483;-61
2023/03/27 05:35:18;;;;;;;1.10;1.00;;;18.50;43.30;;;;;;5018390;28;20430;-62
2023/03/27 05:37:46;;;;;;;1.60;1.20;;;18.50;43.40;;;;;;5013390;28;20942;-60
2023/03/27 05:40:14;;;;;;;1.30;1.20;;;18.50;43.40;;;;;;5017592;28;20418;-60
2023/03/27 05:42:46;;;;;;;1.20;1.10;;;18.50;43.40;;;;;;5019040;28;20457;-60
2023/03/27 05:45:12;;;;;;;2.43;2.23;;;18.50;43.40;;;;;;5012735;28;20472;-61
2023/03/27 05:47:49;;;;;;;1.03;0.93;;;18.50;43.30;;;;;;5014658;28;20439;-60
2023/03/27 05:50:16;;;;;;;2.40;1.40;;;18.50;43.40;;;;;;5015748;28;20505;-61
2023/03/27 05:52:42;;;;;;;2.20;1.10;;;18.50;43.40;;;;;;5016600;28;20426;-61
2023/03/27 05:55:09;;;;;;;1.20;1.10;;;18.50;43.40;;;;;;5023412;28;20481;-65
2023/03/27 05:57:39;;;;;;;1.03;0.93;;;18.50;43.40;;;;;;5019642;28;20226;-59
2023/03/27 06:00:10;;;;;;;1.40;1.00;;;18.50;44.10;;;;;;5018190;28;20422;-59
2023/03/27 06:02:42;;;;;;;1.20;1.10;;;18.50;43.40;;;;;;5015531;28;20492;-61
2023/03/27 06:05:09;;;;;;;1.10;0.90;;;18.50;43.40;;;;;;5017880;28;20462;-68
2023/03/27 06:07:37;;;;;;;1.37;1.23;;;18.50;43.40;;;;;;5018795;28;21141;-63
2023/03/27 06:10:04;;;;;;;0.90;0.80;;;18.50;43.40;;;;;;5025797;28;21137;-60
2023/03/27 06:12:29;;;;;;;1.60;1.10;;;18.50;43.40;;;;;;5020671;28;20791;-59
2023/03/27 06:14:55;;;;;;;1.13;1.03;;;18.50;43.40;;;;;;5025929;28;20476;-59
2023/03/27 06:17:20;;;;;;;2.03;1.13;;;18.50;43.30;;;;;;5021907;28;20231;-61
2023/03/27 06:19:46;;;;;;;2.23;1.20;;;18.50;43.40;;;;;;5020286;28;20211;-59
2023/03/27 06:22:11;;;;;;;1.53;1.00;;;18.50;43.40;;;;;;5022873;28;20591;-59
2023/03/27 06:24:37;;;;;;;1.40;1.30;;;18.50;43.40;;;;;;5013160;28;20213;-61
2023/03/27 06:27:03;;;;;;;1.03;0.93;;;18.50;43.40;;;;;;5019202;28;20230;-59
2023/03/27 06:29:28;;;;;;;1.37;1.27;;;18.50;43.40;;;;;;5016346;28;20226;-61
2023/03/27 06:31:57;;;;;;;2.17;1.20;;;18.50;43.40;;;;;;5022194;28;20768;-62
2023/03/27 06:34:23;;;;;;;1.50;1.20;;;18.50;43.40;;;;;;5022389;28;20784;-59
2023/03/27 06:36:48;;;;;;;1.53;0.90;;;18.50;43.40;;;;;;5017948;28;20431;-63
2023/03/27 06:39:15;;;;;;;1.30;1.20;;;18.50;43.40;;;;;;5013294;28;20226;-59
2023/03/27 06:41:40;;;;;;;2.30;1.20;;;18.50;43.40;;;;;;5018050;28;20754;-65
2023/03/27 06:44:06;;;;;;;1.33;0.87;;;18.50;43.40;;;;;;5016891;28;20455;-62
2023/03/27 06:46:32;;;;;;;1.20;1.10;;;18.50;43.30;;;;;;5014431;28;20237;-59
2023/03/27 06:48:57;;;;;;;1.70;1.20;;;18.50;43.40;;;;;;5017181;28;20215;-59
2023/03/27 06:51:25;;;;;;;1.20;1.10;;;18.50;43.40;;;;;;5017429;28;20239;-60
2023/03/27 06:53:52;;;;;;;1.10;1.00;;;18.50;43.40;;;;;;5016455;28;20594;-61
2023/03/27 06:56:18;;;;;;;1.27;1.10;;;18.50;43.40;;;;;;5021719;28;20457;-59
2023/03/27 06:58:44;;;;;;;2.03;1.00;;;18.50;43.30;;;;;;5016501;28;21257;-59
2023/03/27 07:01:10;;;;;;;1.03;0.87;;;18.50;43.40;;;;;;5019943;28;20223;-61
2023/03/27 07:03:36;;;;;;;1.07;0.97;;;18.50;43.40;;;;;;5018428;28;20231;-62
2023/03/27 07:06:01;;;;;;;1.73;1.10;;;18.50;43.30;;;;;;5021579;28;20844;-62
2023/03/27 07:08:27;;;;;;;1.17;0.90;;;18.50;43.30;;;;;;5020691;28;20222;-59
2023/03/27 07:10:53;;;;;;;1.00;0.90;;;18.50;43.30;;;;;;5019433;28;20642;-62
2023/03/27 07:13:19;;;;;;;1.00;0.90;;;18.50;43.30;;;;;;5023999;28;20237;-60
2023/03/27 07:15:44;;;;;;;1.10;1.00;;;18.50;43.30;;;;;;5018567;28;20938;-61
2023/03/27 07:18:10;;;;;;;1.03;0.93;;;18.50;43.30;;;;;;5019306;28;20223;-65
2023/03/27 07:20:36;;;;;;;1.10;1.00;;;18.50;43.30;;;;;;5020777;28;20773;-60
2023/03/27 07:23:02;;;;;;;0.83;0.83;;;18.50;44.10;;;;;;5022072;28;20222;-62
2023/03/27 07:25:36;;;;;;;1.10;1.00;;;18.50;43.20;;;;;;5011991;28;20226;-59
2023/03/27 07:28:04;;;;;;;1.07;0.97;;;18.50;43.30;;;;;;5013365;28;20231;-62
2023/03/27 07:30:30;;;;;;;1.07;0.97;;;18.50;43.20;;;;;;5011619;28;20504;-62
2023/03/27 07:32:57;;;;;;;1.70;1.13;;;18.50;43.30;;;;;;5016551;28;20833;-59
2023/03/27 07:35:23;;;;;;;1.10;1.00;;;18.50;43.30;;;;;;5017511;28;20234;-58
2023/03/27 07:37:49;;;;;;;1.10;1.00;;;18.50;43.20;;;;;;5019541;28;20948;-65
2023/03/27 07:40:20;;;;;;;0.90;0.80;;;18.50;43.20;;;;;;5020764;28;20454;-62
2023/03/27 07:42:47;;;;;;;3.67;0.90;;;18.50;43.20;;;;;;5018960;28;20224;-60
2023/03/27 07:45:13;;;;;;;1.20;1.10;;;18.50;43.10;;;;;;5015866;28;20938;-61
2023/03/27 07:47:40;;;;;;;0.87;0.87;;;18.50;43.20;;;;;;5017058;28;20425;-59
2023/03/27 07:50:08;;;;;;;1.57;1.07;;;18.50;43.00;;;;;;5019780;28;20474;-61
2023/03/27 07:52:35;;;;;;;1.47;1.37;;;18.50;43.10;;;;;;5019096;28;20462;-62
2023/03/27 07:55:01;;;;;;;1.47;0.90;;;18.50;43.10;;;;;;5018338;28;20878;-58
2023/03/27 07:57:27;;;;;;;1.20;1.10;;;18.50;43.00;;;;;;5021533;28;21002;-59
2023/03/27 07:59:53;;;;;;;0.90;0.80;;;18.50;43.00;;;;;;5025403;28;20462;-59
2023/03/27 08:02:19;;;;;;;0.90;0.80;;;18.50;43.00;;;;;;5022700;28;20215;-62
2023/03/27 08:04:44;;;;;;;0.93;0.90;;;18.50;43.00;;;;;;5020887;28;20423;-62
2023/03/27 08:07:10;;;;;;;1.03;0.87;;;18.50;42.90;;;;;;5020980;28;20227;-60
2023/03/27 08:09:36;;;;;;;1.00;0.90;;;18.50;42.90;;;;;;5019362;28;20227;-67
2023/03/27 08:12:02;;;;;;;1.90;1.00;;;18.50;43.00;;;;;;5016391;28;20629;-59
2023/03/27 08:14:28;;;;;;;2.23;1.10;;;18.50;42.90;;;;;;5016651;28;20652;-59
2023/03/27 08:16:54;;;;;;;2.50;0.90;;;18.50;42.80;;;;;;5017028;28;20473;-61
2023/03/27 08:19:20;;;;;;;1.47;0.80;;;18.50;42.90;;;;;;5019202;28;20230;-62
2023/03/27 08:21:45;;;;;;;0.80;0.80;;;18.50;43.30;;;;;;5016445;28;20289;-59
2023/03/27 08:24:11;;;;;;;1.20;0.80;;;18.50;42.80;;;;;;5020019;28;20424;-62
2023/03/27 08:26:37;;;;;;;0.80;0.70;;;18.50;42.80;;;;;;5016025;28;20233;-59
2023/03/27 08:29:03;;;;;;;0.70;0.70;;;18.50;42.80;;;;;;5021862;28;20245;-62
2023/03/27 08:31:30;;;;;;;1.37;0.80;;;18.50;42.80;;;;;;5017543;28;20222;-59
2023/03/27 08:33:55;;;;;;;0.90;0.80;;;18.50;42.80;;;;;;5015195;28;20459;-63
2023/03/27 08:36:21;;;;;;;0.90;0.80;;;18.50;42.70;;;;;;5018899;28;20568;-59
2023/03/27 08:38:47;;;;;;;1.23;0.87;;;18.50;42.70;;;;;;5025310;28;20219;-59
2023/03/27 08:41:29;;;;;;;1.03;0.93;;;18.50;42.70;;;;;;5017013;28;20569;-60
2023/03/27 08:43:57;;;;;;;0.83;0.73;;;18.50;42.70;;;;;;5023450;28;20215;-65
2023/03/27 08:46:34;;;;;;;1.20;0.80;;;18.50;42.70;;;;;;5016967;28;20462;-58
2023/03/27 08:49:20;;;;;;;1.20;0.90;;;18.50;42.70;;;;;;5017868;28;20513;-65
2023/03/27 08:51:52;;;;;;;1.23;0.70;;;18.50;42.70;;;;;;5023430;28;20474;-62
2023/03/27 08:54:22;;;;;;;0.80;0.70;;;18.50;42.70;;;;;;5025069;28;21014;-59
2023/03/27 08:56:48;;;;;;;0.90;0.80;;;18.50;42.90;;;;;;5023909;28;20459;-60
2023/03/27 08:59:26;;;;;;;1.73;1.00;;;18.50;42.70;;;;;;5018551;28;20418;-60
2023/03/27 09:02:20;;;;;;;1.00;0.90;;;18.50;42.70;;;;;;5021667;28;20444;-60
2023/03/27 09:04:55;;;;;;;1.10;1.00;;;18.50;42.70;;;;;;5019569;28;20485;-60
2023/03/27 09:07:26;;;;;;;1.00;0.73;;;18.50;42.70;;;;;;5019111;28;20453;-59
2023/03/27 09:09:52;;;;;;;0.90;0.80;;;18.50;42.70;;;;;;5018847;28;20435;-61
2023/03/27 09:12:18;;;;;;;1.10;1.00;;;18.50;42.60;;;;;;5016616;28;20973;-59
2023/03/27 09:14:59;;;;;;;1.00;0.90;;;18.50;42.70;;;;;;5016096;28;20245;-60
2023/03/27 09:17:55;;;;;;;0.87;0.87;;;18.50;42.60;;;;;;5021160;28;20333;-61
2023/03/27 09:20:31;;;;;;;1.00;0.90;;;18.50;42.60;;;;;;5011441;28;20835;-62
2023/03/27 09:23:19;;;;;;;0.80;0.80;;;18.50;42.60;;;;;;5014668;28;20522;-59
2023/03/27 09:25:54;;;;;;;1.00;0.90;;;18.50;42.60;;;;;;5018268;28;20848;-59
2023/03/27 09:28:28;;;;;;;0.83;0.83;;;18.50;42.60;;;;;;5017542;28;20443;-62
2023/03/27 09:30:54;;;;;;;0.80;0.80;;;18.50;42.60;;;;;;5020940;28;20443;-60
2023/03/27 09:33:19;;;;;;;3.33;0.83;;;18.50;42.60;;;;;;5016046;28;20510;-59
2023/03/27 09:35:45;;;;;;;1.00;0.90;;;18.50;42.60;;;;;;5009865;28;20624;-59
2023/03/27 09:38:23;;;;;;;1.20;0.87;;;18.50;42.50;;;;;;5007943;28;20645;-61
2023/03/27 09:41:02;;;;;;;0.83;0.80;;;18.50;42.50;;;;;;5018281;28;20472;-59
2023/03/27 09:43:38;;;;;;;1.10;0.80;;;18.50;42.50;;;;;;5015063;28;20825;-62
2023/03/27 09:46:05;;;;;;;1.00;0.90;;;18.50;42.50;;;;;;5017885;28;20466;-58
2023/03/27 09:48:45;;;;;;;1.00;0.90;;;18.50;42.50;;;;;;5016655;28;20456;-60
2023/03/27 09:51:35;;;;;;;0.97;0.80;;;18.50;42.50;;;;;;5015462;28;20445;-58
2023/03/27 09:54:02;;;;;;;1.03;0.83;;;18.50;42.40;;;;;;5015948;28;20464;-58
2023/03/27 09:56:28;;;;;;;1.20;1.00;;;18.50;42.50;;;;;;5014597;28;20442;-63
2023/03/27 09:58:56;;;;;;;0.93;0.83;;;18.50;42.40;;;;;;5016262;28;20443;-58
2023/03/27 10:01:33;;;;;;;0.93;0.83;;;18.50;43.20;;;;;;5015797;28;20442;-60
2023/03/27 10:03:59;;;;;;;0.90;0.87;;;18.50;42.40;;;;;;5018656;28;20529;-58
2023/03/27 10:06:30;;;;;;;0.80;0.80;;;18.50;42.40;;;;;;5015954;28;20571;-59
2023/03/27 10:08:59;;;;;;;1.30;1.20;;;18.50;42.40;;;;;;5010064;28;21542;-63
2023/03/27 10:11:31;;;;;;;0.83;0.73;;;18.50;42.40;;;;;;5015054;28;20460;-59
2023/03/27 10:13:58;;;;;;;1.00;0.90;;;18.50;42.40;;;;;;5011694;28;20840;-61
2023/03/27 10:16:26;;;;;;;1.00;0.90;;;18.50;42.40;;;;;;5009786;28;20987;-58
2023/03/27 10:18:55;;;;;;;0.90;0.77;;;18.50;42.30;;;;;;5014594;28;20513;-61
2023/03/27 10:21:28;;;;;;;1.40;0.90;;;18.50;42.40;;;;;;5016690;28;20781;-60
2023/03/27 10:24:16;;;;;;;1.00;0.90;;;18.50;42.30;;;;;;5021431;28;20871;-60
2023/03/27 10:26:42;;;;;;;0.80;0.60;;;18.50;42.30;;;;;;5018873;28;21100;-60
2023/03/27 10:29:22;;;;;;;0.80;0.80;;;18.50;42.30;;;;;;5018165;28;20963;-61
2023/03/27 10:31:51;;;;;;;0.80;0.80;;;18.50;42.40;;;;;;5016296;28;20746;-61
2023/03/27 10:34:53;;;;;;;1.10;1.00;;;18.50;42.40;;;;;;5015048;28;20426;-64
2023/03/27 10:37:40;;;;;;;1.07;0.97;;;18.50;42.30;;;;;;4999438;28;20430;-59
2023/03/27 10:40:08;;;;;;;1.37;1.00;;;18.50;42.30;;;;;;5014992;28;20512;-63
2023/03/27 10:42:35;;;;;;;0.80;0.80;;;18.50;42.40;;;;;;5016189;28;21326;-59
2023/03/27 10:45:01;;;;;;;0.80;0.70;;;18.50;42.30;;;;;;5020786;28;20462;-60
2023/03/27 10:47:32;;;;;;;0.80;0.70;;;18.50;42.30;;;;;;5016915;28;20438;-59
2023/03/27 10:49:57;;;;;;;0.80;0.70;;;18.50;42.30;;;;;;5017878;28;20529;-61
2023/03/27 10:52:40;;;;;;;1.13;0.90;;;18.50;42.30;;;;;;5017985;28;20469;-58
2023/03/27 10:55:40;;;;;;;1.37;0.90;;;18.50;42.30;;;;;;5021910;28;20857;-61
2023/03/27 10:58:20;;;;;;;1.20;0.87;;;18.50;42.30;;;;;;5020852;28;20431;-62
2023/03/27 11:01:09;;;;;;;1.00;0.90;;;18.50;42.30;;;;;;5021418;28;20439;-65
2023/03/27 11:03:56;;;;;;;1.00;0.73;;;18.50;42.30;;;;;;5016860;28;20460;-60
2023/03/27 11:06:29;;;;;;;0.80;0.70;;;18.50;42.30;;;;;;5021464;28;20499;-59
2023/03/27 11:09:19;;;;;;;0.80;0.73;;;18.50;42.30;;;;;;5021654;28;20881;-66
2023/03/27 11:11:48;;;;;;;1.00;0.90;;;18.50;42.30;;;;;;5016394;28;20449;-63
2023/03/27 11:14:24;;;;;;;1.10;0.70;;;18.50;42.30;;;;;;5019595;28;20827;-60
2023/03/27 11:16:57;;;;;;;1.30;0.80;;;18.50;42.30;;;;;;5020512;28;20505;-59
2023/03/27 11:19:38;;;;;;;2.83;1.20;;;18.50;42.30;;;;;;5022487;28;21033;-59
2023/03/27 11:22:09;;;;;;;0.87;0.87;;;18.50;42.30;;;;;;5021246;28;20553;-60
2023/03/27 11:25:12;;;;;;;0.90;0.80;;;18.50;42.30;;;;;;5022545;28;20462;-62
2023/03/27 11:27:42;;;;;;;0.83;0.83;;;18.50;42.20;;;;;;5021663;28;20467;-58
2023/03/27 11:30:09;;;;;;;0.70;0.63;;;18.50;42.20;;;;;;5018217;28;20903;-59
2023/03/27 11:32:45;;;;;;;0.80;0.70;;;18.50;42.20;;;;;;5015296;28;20459;-63
2023/03/27 11:35:16;;;;;;;0.80;0.80;;;18.50;42.20;;;;;;5018313;28;20556;-60
2023/03/27 11:38:01;;;;;;;1.23;0.70;;;18.50;42.20;;;;;;5034845;28;20450;-59
2023/03/27 11:40:41;;;;;;;1.20;0.80;;;18.50;42.20;;;;;;5026082;28;20446;-63
2023/03/27 11:43:10;;;;;;;1.80;0.90;;;18.50;42.20;;;;;;5023720;28;20472;-60
2023/03/27 11:45:45;;;;;;;0.80;0.70;;;18.50;42.20;;;;;;5021816;28;20469;-62
2023/03/27 11:48:39;;;;;;;1.90;0.70;;;18.50;42.10;;;;;;5017959;28;20494;-61
2023/03/27 11:51:30;;;;;;;0.90;0.80;;;18.50;42.10;;;;;;5015537;28;20473;-60
2023/03/27 11:54:16;;;;;;;1.00;0.80;;;18.50;42.10;;;;;;5036389;28;20430;-60
2023/03/27 11:56:56;;;;;;;0.70;0.63;;;18.50;42.10;;;;;;5007142;28;20486;-61
2023/03/27 11:59:35;;;;;;;0.70;0.70;;;18.50;42.20;;;;;;5019903;28;20476;-60
2023/03/27 12:02:07;;;;;;;0.77;0.77;;;18.50;42.20;;;;;;5017973;28;21059;-59
2023/03/27 12:04:47;;;;;;;0.73;0.70;;;18.50;42.20;;;;;;5029340;28;20523;-63
2023/03/27 12:07:29;;;;;;;1.20;0.80;;;18.50;42.10;;;;;;5021247;28;20445;-60
2023/03/27 12:10:01;;;;;;;0.70;0.70;;;18.50;42.10;;;;;;5021988;28;20513;-60
2023/03/27 12:12:47;;;;;;;1.00;0.70;;;18.50;42.20;;;;;;5020723;28;20571;-59
2023/03/27 12:15:50;;;;;;;0.70;0.60;;;18.50;42.10;;;;;;5017181;28;20975;-60
2023/03/27 12:18:41;;;;;;;0.70;0.70;;;18.50;42.20;;;;;;5013494;28;20523;-58
2023/03/27 12:21:28;;;;;;;0.80;0.70;;;18.50;42.10;;;;;;5015796;28;20452;-66
2023/03/27 12:24:22;;;;;;;0.70;0.70;;;18.50;42.10;;;;;;5018503;28;20516;-59
2023/03/27 12:27:06;;;;;;;0.77;0.67;;;18.50;42.10;;;;;;5020485;28;20480;-60
2023/03/27 12:30:08;;;;;;;0.90;0.60;;;18.50;42.20;;;;;;5019921;28;20575;-59
2023/03/27 12:32:59;;;;;;;0.80;0.70;;;18.50;42.20;;;;;;5020497;28;20430;-61
2023/03/27 12:35:30;;;;;;;0.90;0.70;;;18.50;42.20;;;;;;5034330;28;20439;-59
2023/03/27 12:37:59;;;;;;;0.80;0.77;;;18.50;42.20;;;;;;5023866;28;20456;-59
2023/03/27 12:40:31;;;;;;;0.70;0.70;;;18.50;42.10;;;;;;5025389;28;20456;-58
2023/03/27 12:43:09;;;;;;;0.80;0.80;;;18.50;42.10;;;;;;5018604;28;20472;-61
2023/03/27 12:45:35;;;;;;;1.03;0.70;;;18.50;42.10;;;;;;5020523;28;20419;-60
2023/03/27 12:48:15;;;;;;;0.80;0.70;;;18.50;42.20;;;;;;5024521;28;20523;-64
2023/03/27 12:50:45;;;;;;;0.70;0.60;;;18.50;42.10;;;;;;5019173;28;20242;-60
2023/03/27 12:53:38;;;;;;;0.90;0.70;;;18.50;42.10;;;;;;5021031;28;20490;-59
2023/03/27 12:56:12;;;;;;;0.70;0.70;;;18.50;42.10;;;;;;5015532;28;20519;-59
2023/03/27 12:58:39;;;;;;;0.70;0.70;;;18.50;42.10;;;;;;5013067;28;20434;-65
2023/03/27 13:01:08;;;;;;;0.80;0.70;;;18.50;42.10;;;;;;5013574;28;20456;-61
2023/03/27 13:04:00;;;;;;;0.90;0.77;;;18.50;42.10;;;;;;5019635;28;20455;-63
2023/03/27 13:06:26;;;;;;;1.00;0.70;;;18.50;42.20;;;;;;5015601;28;20518;-60
2023/03/27 13:09:15;;;;;;;0.90;0.60;;;18.50;42.10;;;;;;5018087;28;20522;-60
2023/03/27 13:11:57;;;;;;;0.93;0.93;;;18.50;42.10;;;;;;5018540;28;20926;-60